EGPF

Glasgow International Airport

Glasgow, United Kingdom
METAR EGPF 191650Z AUTO 26008KT 9999 OVC045 17/12 Q1016
Observed Flight Rules
Aug-19 @ 16:50 UTC (24 minutes ago) Visual Flight Rules
Wind Visibility Clouds
260° at 8 knots 10,000+ meters
  • Overcast at 4,500' AGL
Temperatures Readings
Current 17°C / 63°F
Dewpoint 12°C / 54°F
Humidity 73%
Altimeter 30" Hg
Pressure 1016 hPa
Elevation 8
METAR EGPF 191650Z AUTO 26008KT 9999 OVC045 17/12 Q1016
Observed Flight Rules
Aug-19 @ 16:50 UTC
(24 minutes ago)
VFR
Wind Visibility
260° at 8 knots 10,000+ meters
Clouds
  • Overcast at 4,500' AGL
Temperature Dewpoint
17°C / 63°F 12°C / 54°F
Humidity Altimeter Pressure
73% 30" Hg 1016 hPa